In Rescue
 
Open Full Screen Window  High Contrast Mode
September 23, 2021 6:44 PM GMT
Present Weather: Light Rain
Weather Information
Wind Direction
  ---
Wind Speed
  00 kt (0 mph)
Wind Gust
  00 kt (0 mph)
Altimeter
29.85 in
Visibility
10 SM
Temperature
21° C
70° F
Dewpoint
21° C
70° F
Humidity
100%
Sky Condition
Overcast @ 7,000 ft
Broken @ 2,800 ft
Broken @ 1,200 ft
MVFR

METAR K22N 231844Z AUTO 00000KT 10SM -RA BKN012 BKN028 OVC070 21/21 A2985 RMK AO2 LTG DSNT NE THRU SE

FAA Disclaimer: The data displayed is for advisory purposes only and is not to be used for flight planning or operations.